Time;durP1;ratioP1;P1;durP2;ratioP2;P2;SDS_P1;SDS_P2;PMS_P1;PMS_P2;Temp;Humidity;BMP_temperature;BMP_pressure;BME280_temperature;BME280_humidity;BME280_pressure;Samples;Min_cycle;Max_cycle;Signal;HPM_P1;HPM_P2
2022/05/04 03:00:45;;;;;;;0.90;0.90;;;14.80;75.00;;;;;;5958136;23;20415;-67
2022/05/04 03:03:10;;;;;;;0.80;0.80;;;14.80;75.00;;;;;;4995982;28;20488;-69
2022/05/04 03:05:37;;;;;;;1.00;1.00;;;14.80;74.90;;;;;;4995825;28;20444;-69
2022/05/04 03:08:05;;;;;;;0.80;0.80;;;14.80;75.00;;;;;;4995804;28;20205;-67
2022/05/04 03:11:54;;;;;;;0.70;0.70;;;14.70;74.80;;;;;;4995704;28;20520;-68
2022/05/04 03:13:19;;;;;;;0.80;0.80;;;14.70;74.90;;;;;;4995277;28;20449;-68
2022/05/04 03:15:47;;;;;;;0.90;0.90;;;14.70;74.70;;;;;;4996958;28;20457;-67
2022/05/04 03:18:14;;;;;;;0.80;0.80;;;14.60;74.80;;;;;;4995598;28;20453;-68
2022/05/04 03:20:40;;;;;;;1.23;0.77;;;14.60;75.00;;;;;;4995406;28;20539;-68
2022/05/04 03:23:07;;;;;;;0.70;0.70;;;14.70;75.00;;;;;;4995545;28;20499;-68
2022/05/04 03:25:34;;;;;;;0.70;0.70;;;14.70;75.00;;;;;;4995541;28;20496;-68
2022/05/04 03:28:00;;;;;;;0.70;0.70;;;14.80;74.80;;;;;;4995418;28;20476;-68
2022/05/04 03:30:27;;;;;;;0.80;0.80;;;14.80;74.70;;;;;;4995326;28;20452;-68
2022/05/04 03:32:55;;;;;;;0.80;0.80;;;14.80;74.30;;;;;;4995372;28;20445;-68
2022/05/04 03:35:22;;;;;;;0.80;0.80;;;14.80;74.20;;;;;;4995276;28;20499;-68
2022/05/04 03:37:48;;;;;;;0.70;0.70;;;14.80;74.30;;;;;;4995212;28;20445;-68
2022/05/04 03:40:15;;;;;;;0.83;0.83;;;14.90;74.60;;;;;;4995201;28;20518;-68
2022/05/04 03:42:42;;;;;;;0.83;0.83;;;14.90;74.70;;;;;;4995021;28;20472;-68
2022/05/04 03:45:10;;;;;;;0.70;0.70;;;14.90;74.70;;;;;;4995016;28;20474;-68
2022/05/04 03:47:37;;;;;;;0.83;0.83;;;14.90;74.70;;;;;;4994942;28;20511;-68
2022/05/04 03:50:06;;;;;;;0.73;0.73;;;15.00;74.30;;;;;;4994707;28;20854;-68
2022/05/04 03:52:33;;;;;;;0.70;0.70;;;14.90;74.00;;;;;;4994919;28;20468;-68
2022/05/04 03:54:59;;;;;;;0.70;0.70;;;14.90;73.90;;;;;;4994937;28;20441;-68
2022/05/04 03:57:26;;;;;;;0.73;0.73;;;14.90;74.20;;;;;;4994834;28;20523;-68
2022/05/04 03:59:52;;;;;;;0.73;0.73;;;14.80;73.70;;;;;;4994858;28;20445;-68
2022/05/04 04:02:19;;;;;;;0.80;0.80;;;14.60;74.00;;;;;;4994296;28;20544;-68
2022/05/04 04:04:46;;;;;;;0.80;0.80;;;14.70;74.30;;;;;;4994405;28;20879;-68
2022/05/04 04:07:14;;;;;;;0.70;0.70;;;14.80;74.50;;;;;;4994398;28;20940;-68
2022/05/04 04:09:40;;;;;;;0.77;0.77;;;14.80;74.40;;;;;;4994643;28;20449;-68
2022/05/04 04:12:08;;;;;;;0.60;0.60;;;14.80;74.10;;;;;;4994598;28;20515;-68
2022/05/04 04:14:35;;;;;;;0.70;0.70;;;14.90;73.70;;;;;;4994620;28;20495;-68
2022/05/04 04:17:02;;;;;;;0.70;0.70;;;14.90;73.70;;;;;;4994558;28;20519;-68
2022/05/04 04:19:28;;;;;;;0.70;0.70;;;15.00;73.70;;;;;;4994464;28;20535;-68
2022/05/04 04:21:54;;;;;;;0.77;0.77;;;14.90;73.70;;;;;;4993991;28;20485;-68
2022/05/04 04:24:23;;;;;;;0.70;0.70;;;15.00;73.80;;;;;;4994360;28;20499;-68
2022/05/04 04:26:50;;;;;;;0.70;0.70;;;15.00;73.80;;;;;;4994319;28;20202;-69
2022/05/04 04:29:17;;;;;;;0.70;0.70;;;15.00;73.80;;;;;;4994329;28;20445;-70
2022/05/04 04:31:44;;;;;;;0.93;0.83;;;15.10;73.70;;;;;;4993950;28;20976;-69
2022/05/04 04:34:10;;;;;;;0.90;0.90;;;15.10;73.60;;;;;;4994242;28;20507;-70
2022/05/04 04:36:37;;;;;;;0.77;0.77;;;14.90;73.80;;;;;;4994247;28;20453;-70
2022/05/04 04:39:05;;;;;;;0.70;0.70;;;14.90;73.90;;;;;;4993940;28;20968;-68
2022/05/04 04:41:33;;;;;;;0.80;0.80;;;15.00;73.90;;;;;;4994026;28;20576;-68
2022/05/04 04:43:59;;;;;;;0.80;0.80;;;14.90;73.60;;;;;;4994238;28;20495;-69
2022/05/04 04:46:26;;;;;;;0.70;0.70;;;14.80;74.30;;;;;;4993877;28;20453;-70
2022/05/04 04:48:53;;;;;;;0.80;0.80;;;14.80;74.40;;;;;;4994110;28;20484;-68
2022/05/04 04:51:20;;;;;;;0.90;0.90;;;15.00;74.50;;;;;;4994004;28;20623;-68
2022/05/04 04:53:47;;;;;;;0.70;0.70;;;15.00;74.20;;;;;;4994061;28;20499;-68
2022/05/04 04:56:14;;;;;;;0.70;0.70;;;15.10;73.90;;;;;;4993999;28;20476;-68
2022/05/04 04:58:42;;;;;;;0.70;0.70;;;15.00;73.80;;;;;;4994018;28;20508;-68
2022/05/04 05:01:09;;;;;;;0.87;0.87;;;15.10;73.70;;;;;;4993690;28;20540;-68
2022/05/04 05:03:35;;;;;;;0.70;0.63;;;15.00;73.50;;;;;;4994510;28;20461;-68
2022/05/04 05:06:02;;;;;;;0.70;0.70;;;15.00;73.80;;;;;;4993978;28;20450;-68
2022/05/04 05:08:29;;;;;;;0.80;0.80;;;14.90;74.00;;;;;;4994679;28;20523;-67
2022/05/04 05:10:55;;;;;;;0.93;0.93;;;14.70;73.50;;;;;;4993551;28;21109;-69
2022/05/04 05:13:22;;;;;;;0.70;0.70;;;14.70;74.40;;;;;;4993576;28;20940;-70
2022/05/04 05:16:07;;;;;;;0.70;0.70;;;14.70;74.50;;;;;;4993863;28;20449;-70
2022/05/04 05:18:34;;;;;;;0.70;0.70;;;14.70;74.40;;;;;;4993873;28;20437;-70
2022/05/04 05:21:01;;;;;;;0.70;0.70;;;14.70;74.50;;;;;;4993674;28;20465;-70
2022/05/04 05:23:27;;;;;;;0.80;0.80;;;14.60;75.40;;;;;;4994111;28;20476;-68
2022/05/04 05:25:54;;;;;;;0.60;0.60;;;14.70;75.10;;;;;;4997731;28;20484;-67
2022/05/04 05:28:21;;;;;;;0.70;0.70;;;14.90;74.90;;;;;;4997338;28;20948;-67
2022/05/04 05:30:49;;;;;;;0.70;0.70;;;15.00;74.50;;;;;;4997504;28;20473;-68
2022/05/04 05:33:16;;;;;;;1.03;0.87;;;15.10;74.90;;;;;;4997556;28;20440;-67
2022/05/04 05:35:42;;;;;;;0.70;0.70;;;15.20;74.30;;;;;;4997542;28;20441;-68
2022/05/04 05:38:10;;;;;;;0.70;0.70;;;15.20;73.40;;;;;;4997516;28;20448;-68
2022/05/04 05:40:37;;;;;;;0.80;0.70;;;15.20;73.80;;;;;;4997315;28;20461;-67
2022/05/04 05:43:04;;;;;;;1.00;0.80;;;15.30;73.90;;;;;;4997350;28;20510;-68
2022/05/04 05:45:31;;;;;;;0.73;0.73;;;15.40;73.60;;;;;;4997268;28;20448;-67
2022/05/04 05:47:59;;;;;;;1.10;0.90;;;15.40;73.30;;;;;;4997256;28;20449;-67
2022/05/04 05:50:25;;;;;;;0.80;0.80;;;15.50;73.10;;;;;;4997122;28;20453;-67
2022/05/04 05:52:52;;;;;;;0.87;0.70;;;15.40;72.40;;;;;;4997206;28;20500;-67
2022/05/04 05:55:19;;;;;;;0.83;0.83;;;15.50;72.40;;;;;;4997128;28;20522;-67
2022/05/04 05:57:45;;;;;;;0.73;0.73;;;15.60;72.60;;;;;;4997006;28;20453;-68
2022/05/04 06:00:13;;;;;;;0.90;0.90;;;15.60;72.60;;;;;;4996922;28;20460;-67
2022/05/04 06:02:40;;;;;;;0.70;0.70;;;15.60;73.30;;;;;;4996176;28;20500;-67
2022/05/04 06:05:09;;;;;;;0.90;0.90;;;15.60;73.80;;;;;;4996656;28;20449;-67
2022/05/04 06:07:37;;;;;;;0.70;0.70;;;15.60;73.90;;;;;;4996659;28;20477;-68
2022/05/04 06:10:04;;;;;;;0.80;0.80;;;15.60;73.70;;;;;;4996363;28;21015;-67
2022/05/04 06:12:31;;;;;;;1.10;1.00;;;15.60;73.70;;;;;;4996496;28;20469;-68
2022/05/04 06:14:58;;;;;;;0.90;0.80;;;15.60;73.30;;;;;;4996546;28;20453;-68
2022/05/04 06:17:25;;;;;;;0.90;0.90;;;15.70;73.50;;;;;;4996181;28;20825;-68
2022/05/04 06:19:51;;;;;;;0.90;0.73;;;15.70;73.70;;;;;;4996409;28;20485;-68
2022/05/04 06:22:19;;;;;;;0.70;0.70;;;15.80;74.10;;;;;;4996242;28;20530;-69
2022/05/04 06:24:46;;;;;;;0.83;0.83;;;15.80;74.10;;;;;;4996435;28;20495;-69
2022/05/04 06:27:13;;;;;;;0.80;0.80;;;15.80;74.00;;;;;;4996611;28;20495;-69
2022/05/04 06:35:09;;;;;;;1.03;0.93;;;15.80;74.60;;;;;;4994955;28;20408;-67
2022/05/04 06:37:37;;;;;;;0.80;0.80;;;15.90;74.50;;;;;;4996075;28;20457;-68
2022/05/04 06:40:04;;;;;;;0.97;0.80;;;15.90;74.00;;;;;;4995783;28;20453;-68
2022/05/04 06:42:31;;;;;;;0.80;0.80;;;15.90;73.00;;;;;;4995853;28;20580;-68
2022/05/04 06:44:57;;;;;;;0.80;0.80;;;15.90;73.00;;;;;;4996092;28;20445;-68
2022/05/04 06:47:24;;;;;;;0.70;0.70;;;16.00;73.00;;;;;;4996727;28;20503;-68
2022/05/04 06:49:51;;;;;;;0.80;0.80;;;16.00;73.10;;;;;;4995965;28;20456;-68
2022/05/04 06:52:17;;;;;;;0.70;0.60;;;16.00;73.50;;;;;;4995851;28;20472;-68
2022/05/04 06:54:45;;;;;;;0.80;0.70;;;16.00;73.80;;;;;;4995881;28;20444;-68
2022/05/04 06:57:12;;;;;;;1.27;0.80;;;15.90;73.20;;;;;;4995819;28;20457;-69
2022/05/04 06:59:39;;;;;;;0.93;0.70;;;15.70;74.10;;;;;;4995759;28;20445;-68
2022/05/04 07:02:06;;;;;;;0.80;0.80;;;15.80;74.50;;;;;;4995314;28;20499;-68
2022/05/04 07:04:32;;;;;;;0.90;0.90;;;15.90;75.30;;;;;;4996600;28;20513;-69
2022/05/04 07:06:59;;;;;;;0.70;0.70;;;16.00;74.70;;;;;;4995665;28;20476;-68
2022/05/04 07:09:26;;;;;;;0.63;0.60;;;16.00;73.70;;;;;;4995808;28;20503;-68
2022/05/04 07:11:54;;;;;;;0.80;0.80;;;16.10;73.80;;;;;;4995558;28;20477;-68
2022/05/04 07:14:20;;;;;;;1.00;1.00;;;16.20;74.80;;;;;;4995621;28;20448;-69
2022/05/04 07:16:48;;;;;;;0.70;0.70;;;16.20;73.80;;;;;;4995410;28;20445;-68
2022/05/04 07:19:15;;;;;;;0.70;0.70;;;16.20;73.40;;;;;;4995471;28;20813;-68
2022/05/04 07:21:42;;;;;;;0.70;0.70;;;16.30;73.30;;;;;;4994859;28;21050;-68
2022/05/04 07:24:09;;;;;;;0.60;0.60;;;16.40;73.60;;;;;;4994919;28;21011;-68
2022/05/04 07:26:36;;;;;;;0.70;0.70;;;16.50;73.40;;;;;;4995226;28;20459;-68
2022/05/04 07:29:04;;;;;;;1.43;0.90;;;16.50;73.00;;;;;;4995249;28;20453;-69
2022/05/04 07:31:30;;;;;;;0.80;0.80;;;16.50;73.10;;;;;;4995225;28;20473;-68
2022/05/04 07:33:57;;;;;;;0.80;0.80;;;16.40;72.60;;;;;;4995307;28;20614;-69
2022/05/04 07:36:24;;;;;;;0.87;0.87;;;16.30;73.90;;;;;;4995197;28;20453;-69
2022/05/04 07:38:51;;;;;;;0.80;0.80;;;16.30;74.30;;;;;;4995194;28;20445;-68
2022/05/04 07:44:01;;;;;;;1.00;0.70;;;16.20;74.30;;;;;;4995010;28;20478;-68
2022/05/04 07:46:29;;;;;;;0.70;0.70;;;16.10;74.30;;;;;;4994722;28;20441;-69
2022/05/04 07:48:56;;;;;;;0.80;0.80;;;16.00;74.70;;;;;;4994711;28;20987;-68
2022/05/04 07:51:23;;;;;;;0.73;0.73;;;15.90;75.60;;;;;;4994757;28;20547;-69
2022/05/04 07:53:49;;;;;;;0.87;0.87;;;15.80;76.30;;;;;;4994849;28;20494;-68
2022/05/04 07:56:16;;;;;;;0.80;0.80;;;15.70;75.70;;;;;;4994769;28;20440;-68
2022/05/04 07:58:43;;;;;;;0.80;0.80;;;15.80;76.10;;;;;;4994646;28;20444;-68
2022/05/04 08:06:39;;;;;;;1.00;0.80;;;15.60;77.00;;;;;;4994657;28;20413;-68
2022/05/04 08:09:06;;;;;;;1.23;0.80;;;15.50;78.00;;;;;;4994441;28;20540;-68
2022/05/04 08:11:33;;;;;;;0.90;0.90;;;15.50;77.30;;;;;;4994478;28;20893;-68
2022/05/04 08:13:59;;;;;;;0.80;0.80;;;15.40;78.00;;;;;;4994287;28;20851;-68
2022/05/04 08:16:26;;;;;;;0.80;0.80;;;15.50;78.00;;;;;;4994126;28;20991;-68
2022/05/04 08:18:54;;;;;;;0.80;0.80;;;15.60;77.90;;;;;;4994279;28;20541;-68
2022/05/04 08:21:21;;;;;;;0.90;0.90;;;15.60;77.60;;;;;;4994093;28;20469;-68
2022/05/04 08:23:47;;;;;;;0.80;0.80;;;15.70;78.30;;;;;;4994003;28;20524;-68
2022/05/04 08:26:14;;;;;;;0.80;0.80;;;15.90;78.10;;;;;;4994761;28;20844;-68
2022/05/04 08:28:41;;;;;;;0.80;0.80;;;16.00;78.30;;;;;;4993840;28;20921;-68
2022/05/04 08:31:07;;;;;;;0.80;0.80;;;16.20;77.60;;;;;;4994070;28;20496;-69
2022/05/04 08:33:35;;;;;;;0.90;0.90;;;16.30;77.80;;;;;;4994308;28;20524;-69
2022/05/04 08:36:03;;;;;;;0.83;0.80;;;16.40;76.90;;;;;;4994235;28;20453;-70
2022/05/04 08:38:30;;;;;;;0.80;0.80;;;16.60;76.60;;;;;;4993865;28;20445;-70
2022/05/04 08:40:57;;;;;;;0.90;0.90;;;16.60;76.80;;;;;;4993907;28;20473;-70
2022/05/04 08:43:25;;;;;;;0.80;0.80;;;16.70;77.30;;;;;;4993905;28;20535;-70
2022/05/04 08:45:53;;;;;;;1.00;0.83;;;16.80;77.30;;;;;;4993844;28;20452;-70
2022/05/04 08:48:22;;;;;;;1.00;1.00;;;16.90;77.20;;;;;;4993444;28;20504;-70
2022/05/04 08:50:50;;;;;;;0.80;0.80;;;16.90;77.40;;;;;;4993750;28;20556;-69
2022/05/04 08:53:18;;;;;;;0.90;0.90;;;17.00;77.80;;;;;;4993915;28;20457;-70
2022/05/04 08:55:45;;;;;;;0.90;0.90;;;17.10;78.30;;;;;;4993669;28;20536;-69
2022/05/04 08:58:12;;;;;;;0.87;0.87;;;17.20;77.90;;;;;;4992972;28;20445;-69
2022/05/04 09:00:39;;;;;;;0.90;0.90;;;17.40;77.80;;;;;;4993365;28;20477;-69
2022/05/04 09:03:07;;;;;;;0.80;0.80;;;17.50;77.70;;;;;;4993284;28;20976;-69
2022/05/04 09:05:39;;;;;;;0.87;0.87;;;17.70;77.00;;;;;;4993736;28;20445;-69
2022/05/04 09:08:06;;;;;;;0.80;0.80;;;17.80;76.50;;;;;;4993736;28;20488;-69
2022/05/04 09:10:38;;;;;;;0.83;0.83;;;17.80;76.30;;;;;;4993569;28;20515;-70
2022/05/04 09:13:06;;;;;;;0.90;0.90;;;18.00;75.80;;;;;;4993712;28;20425;-69
2022/05/04 09:18:11;;;;;;;0.87;0.87;;;18.20;74.70;;;;;;5010504;23;20856;-73
2022/05/04 09:20:47;;;;;;;1.00;0.90;;;18.30;74.60;;;;;;4994108;28;20511;-74
2022/05/04 09:23:15;;;;;;;1.00;1.00;;;18.20;74.00;;;;;;4993902;28;20519;-73
2022/05/04 09:25:43;;;;;;;0.90;0.90;;;18.30;74.70;;;;;;4993735;28;20503;-73
2022/05/04 09:28:12;;;;;;;0.90;0.90;;;18.40;74.80;;;;;;4993446;28;20871;-73
2022/05/04 09:30:47;;;;;;;0.90;0.87;;;18.40;73.20;;;;;;4994186;28;20884;-73
2022/05/04 09:33:18;;;;;;;1.10;1.00;;;18.50;72.90;;;;;;4993951;28;20504;-73
2022/05/04 09:35:45;;;;;;;0.83;0.83;;;18.30;72.90;;;;;;4994066;28;20429;-73
2022/05/04 09:46:39;;;;;;;0.80;0.80;;;19.00;73.50;;;;;;4993586;28;20871;-73
2022/05/04 09:49:16;;;;;;;1.37;0.90;;;19.50;73.50;;;;;;4993874;28;20480;-73
2022/05/04 09:51:45;;;;;;;0.70;0.70;;;19.80;69.10;;;;;;4993782;28;20449;-73
2022/05/04 09:54:20;;;;;;;1.53;0.80;;;20.20;69.60;;;;;;4993728;28;20449;-74
2022/05/04 09:56:50;;;;;;;0.80;0.80;;;20.50;66.30;;;;;;4993423;28;20476;-74
2022/05/04 09:59:18;;;;;;;0.80;0.80;;;20.70;64.70;;;;;;4993475;28;20461;-73
2022/05/04 10:01:46;;;;;;;0.70;0.70;;;20.90;66.60;;;;;;4993468;28;20480;-73
2022/05/04 10:04:13;;;;;;;0.70;0.70;;;21.00;67.00;;;;;;4993354;28;20522;-73
2022/05/04 10:06:40;;;;;;;0.60;0.60;;;21.00;65.60;;;;;;4993415;28;20821;-73
2022/05/04 10:09:08;;;;;;;0.70;0.70;;;21.00;64.20;;;;;;4993364;28;20459;-73
2022/05/04 10:11:35;;;;;;;0.70;0.70;;;21.10;63.80;;;;;;4996721;28;20448;-74
2022/05/04 10:14:05;;;;;;;0.80;0.80;;;21.10;62.10;;;;;;4996784;28;20441;-74
2022/05/04 10:16:36;;;;;;;0.70;0.60;;;21.10;62.10;;;;;;4996423;28;20512;-73
2022/05/04 10:19:07;;;;;;;0.70;0.60;;;21.20;63.20;;;;;;4997311;28;20492;-75
2022/05/04 10:21:35;;;;;;;0.90;0.60;;;21.30;60.20;;;;;;4996984;28;20897;-74
2022/05/04 10:24:06;;;;;;;0.60;0.60;;;21.30;61.00;;;;;;4996790;28;20481;-74
2022/05/04 10:26:33;;;;;;;0.80;0.60;;;21.50;61.10;;;;;;4996677;28;20900;-73
2022/05/04 10:31:56;;;;;;;0.67;0.60;;;21.70;63.30;;;;;;4997589;28;20456;-73
2022/05/04 10:34:23;;;;;;;0.67;0.60;;;21.90;57.70;;;;;;4996956;28;20445;-73
2022/05/04 10:36:54;;;;;;;0.70;0.60;;;22.10;60.40;;;;;;4996514;28;20879;-74
2022/05/04 10:39:22;;;;;;;0.60;0.60;;;22.30;61.10;;;;;;4996419;28;20977;-73
2022/05/04 10:41:49;;;;;;;0.70;0.60;;;22.50;56.10;;;;;;4996437;28;20540;-73
2022/05/04 10:44:17;;;;;;;0.90;0.70;;;22.70;56.50;;;;;;4996303;28;20536;-73
2022/05/04 10:46:47;;;;;;;0.60;0.60;;;22.70;55.30;;;;;;4996268;28;20877;-73
2022/05/04 10:49:16;;;;;;;0.90;0.67;;;22.90;56.00;;;;;;4996316;28;20452;-73
2022/05/04 10:51:46;;;;;;;0.60;0.60;;;23.10;54.60;;;;;;4996132;28;20449;-73
2022/05/04 10:54:15;;;;;;;0.70;0.70;;;23.20;55.30;;;;;;4996093;28;20445;-73
2022/05/04 10:56:42;;;;;;;0.70;0.60;;;23.20;55.30;;;;;;4995976;28;20473;-73
2022/05/04 10:59:09;;;;;;;0.60;0.60;;;23.20;53.40;;;;;;4996035;28;20449;-73
2022/05/04 11:01:37;;;;;;;0.70;0.60;;;23.10;53.70;;;;;;4996058;28;20449;-72
2022/05/04 11:04:24;;;;;;;2.07;0.70;;;23.10;55.40;;;;;;4995864;28;20531;-72
2022/05/04 11:07:05;;;;;;;0.70;0.60;;;23.20;53.40;;;;;;4996023;28;20476;-73
2022/05/04 11:09:37;;;;;;;0.70;0.60;;;23.20;54.10;;;;;;4996090;28;20449;-72
2022/05/04 11:12:06;;;;;;;0.70;0.60;;;23.10;53.30;;;;;;4996175;28;20461;-73
2022/05/04 11:14:34;;;;;;;0.70;0.70;;;23.10;53.10;;;;;;4995668;28;20932;-73
2022/05/04 11:17:03;;;;;;;0.60;0.60;;;22.90;57.00;;;;;;4995528;28;20516;-72
2022/05/04 11:19:32;;;;;;;0.80;0.70;;;22.90;53.40;;;;;;4995423;28;20872;-72
2022/05/04 11:22:01;;;;;;;0.70;0.70;;;23.00;53.50;;;;;;4994952;28;20487;-72
2022/05/04 11:24:29;;;;;;;0.70;0.60;;;22.90;52.40;;;;;;4995309;28;21004;-71
2022/05/04 11:26:56;;;;;;;0.60;0.60;;;22.80;52.80;;;;;;4995576;28;21042;-71
2022/05/04 11:29:25;;;;;;;0.70;0.70;;;22.80;52.90;;;;;;4995536;28;20527;-72
2022/05/04 11:31:54;;;;;;;0.80;0.70;;;22.90;54.10;;;;;;4995221;28;20448;-72
2022/05/04 11:34:22;;;;;;;0.70;0.70;;;22.90;54.10;;;;;;4995358;28;20544;-72
2022/05/04 11:36:51;;;;;;;0.70;0.70;;;22.90;54.90;;;;;;4995222;28;20473;-72
2022/05/04 11:39:22;;;;;;;0.63;0.60;;;22.80;54.20;;;;;;4995284;28;20445;-71
2022/05/04 11:41:50;;;;;;;0.70;0.60;;;22.90;53.70;;;;;;4995289;28;20446;-71
2022/05/04 11:44:18;;;;;;;0.70;0.60;;;23.10;52.80;;;;;;4995106;28;20485;-72
2022/05/04 11:46:47;;;;;;;0.80;0.70;;;23.00;52.80;;;;;;4995126;28;20564;-72
2022/05/04 11:49:13;;;;;;;0.60;0.60;;;22.90;54.10;;;;;;4995134;28;20455;-72
2022/05/04 11:51:40;;;;;;;0.60;0.60;;;23.10;54.00;;;;;;4995044;28;20449;-71
2022/05/04 11:54:07;;;;;;;0.67;0.60;;;23.00;51.90;;;;;;4994971;28;20532;-72
2022/05/04 11:56:36;;;;;;;0.70;0.70;;;22.40;51.50;;;;;;4994832;28;20519;-71
2022/05/04 11:59:03;;;;;;;0.60;0.60;;;21.80;53.10;;;;;;4995108;28;20603;-73
2022/05/04 12:01:30;;;;;;;0.67;0.60;;;22.00;53.80;;;;;;4994536;28;20805;-73
2022/05/04 12:03:58;;;;;;;0.70;0.60;;;22.00;52.70;;;;;;4994567;28;20484;-73
2022/05/04 12:06:26;;;;;;;0.70;0.70;;;22.10;51.60;;;;;;4994547;28;20473;-73
2022/05/04 12:08:54;;;;;;;0.63;0.60;;;22.20;53.20;;;;;;4994754;28;20445;-73
2022/05/04 12:11:22;;;;;;;0.70;0.70;;;22.10;53.30;;;;;;4994765;28;20449;-73
2022/05/04 12:13:51;;;;;;;0.70;0.60;;;22.40;52.90;;;;;;4994778;28;20448;-73
2022/05/04 12:16:18;;;;;;;0.70;0.60;;;22.60;54.20;;;;;;4994374;28;20901;-73
2022/05/04 12:18:47;;;;;;;0.70;0.70;;;21.90;51.70;;;;;;4994452;28;20854;-72
2022/05/04 12:21:15;;;;;;;0.80;0.80;;;21.20;54.80;;;;;;4994438;28;20445;-73
2022/05/04 12:23:43;;;;;;;1.10;0.80;;;20.80;58.50;;;;;;4994429;28;20572;-73
2022/05/04 12:26:12;;;;;;;1.00;1.00;;;20.60;59.70;;;;;;4994400;28;20559;-73
2022/05/04 12:28:40;;;;;;;0.80;0.80;;;20.30;61.00;;;;;;4994488;28;20480;-72
2022/05/04 12:33:55;;;;;;;0.70;0.70;;;20.50;61.40;;;;;;4994266;28;20412;-74
2022/05/04 12:36:23;;;;;;;0.80;0.80;;;20.40;61.20;;;;;;4993919;28;20468;-73
2022/05/04 12:38:51;;;;;;;0.70;0.70;;;20.00;60.80;;;;;;4994437;28;20453;-73
2022/05/04 12:41:19;;;;;;;0.80;0.80;;;19.80;61.60;;;;;;4994313;28;20794;-73
2022/05/04 12:43:48;;;;;;;0.80;0.80;;;19.80;62.40;;;;;;4994189;28;20477;-73
2022/05/04 12:46:18;;;;;;;0.80;0.80;;;19.90;62.50;;;;;;4993958;28;20473;-73
2022/05/04 12:48:46;;;;;;;0.80;0.80;;;19.90;62.00;;;;;;4995008;28;20503;-72
2022/05/04 12:51:16;;;;;;;0.80;0.70;;;19.70;62.50;;;;;;4994075;28;20503;-73
2022/05/04 12:53:45;;;;;;;0.80;0.80;;;19.60;63.80;;;;;;4994106;28;20821;-72
2022/05/04 12:58:56;;;;;;;0.83;0.80;;;19.10;65.00;;;;;;4993912;28;20405;-73
2022/05/04 13:01:26;;;;;;;0.70;0.70;;;19.10;65.10;;;;;;4994062;28;20449;-73
2022/05/04 13:03:53;;;;;;;0.80;0.80;;;18.80;65.10;;;;;;4993913;28;20531;-73
2022/05/04 13:06:20;;;;;;;0.70;0.70;;;18.80;64.10;;;;;;4993849;28;20477;-72
2022/05/04 13:08:48;;;;;;;0.70;0.60;;;18.70;65.10;;;;;;4993970;28;20523;-73
2022/05/04 13:11:15;;;;;;;0.70;0.70;;;19.00;64.10;;;;;;4993886;28;20453;-73
2022/05/04 13:13:42;;;;;;;0.60;0.60;;;19.10;63.70;;;;;;4993953;28;20460;-73
2022/05/04 13:16:09;;;;;;;0.70;0.70;;;18.90;62.90;;;;;;4993678;28;20481;-73
2022/05/04 13:18:37;;;;;;;0.60;0.60;;;18.80;63.40;;;;;;4994040;28;20433;-72
2022/05/04 13:21:04;;;;;;;0.60;0.60;;;18.50;63.10;;;;;;4993939;28;20504;-72
2022/05/04 13:23:31;;;;;;;0.70;0.70;;;18.60;61.40;;;;;;4993833;28;20448;-72
2022/05/04 13:25:57;;;;;;;0.60;0.60;;;18.60;62.20;;;;;;4993877;28;20477;-72
2022/05/04 13:28:24;;;;;;;0.70;0.70;;;18.70;63.20;;;;;;4994008;28;20453;-72
2022/05/04 13:30:51;;;;;;;0.67;0.60;;;18.80;62.00;;;;;;4993926;28;20449;-73
2022/05/04 13:33:18;;;;;;;0.60;0.60;;;18.80;63.00;;;;;;4993421;28;20999;-72
2022/05/04 13:35:46;;;;;;;0.70;0.70;;;18.90;64.70;;;;;;4993755;28;20453;-73
2022/05/04 13:38:13;;;;;;;0.70;0.60;;;19.00;64.90;;;;;;4993682;28;20492;-72
2022/05/04 13:40:40;;;;;;;0.70;0.70;;;18.90;65.60;;;;;;4993677;28;20520;-72
2022/05/04 13:43:07;;;;;;;0.70;0.67;;;19.00;63.20;;;;;;4993388;28;20453;-73
2022/05/04 13:45:33;;;;;;;0.83;0.60;;;18.90;64.30;;;;;;4995557;28;20532;-73
2022/05/04 13:48:00;;;;;;;0.73;0.73;;;18.80;63.00;;;;;;4997322;28;20452;-72
2022/05/04 13:53:18;;;;;;;1.63;0.70;;;18.90;59.90;;;;;;4996855;28;20483;-72
2022/05/04 13:55:46;;;;;;;0.60;0.60;;;18.70;61.30;;;;;;4997215;28;20429;-72
2022/05/04 13:58:13;;;;;;;0.93;0.70;;;18.80;60.50;;;;;;4997123;28;20441;-72
2022/05/04 14:00:41;;;;;;;0.70;0.67;;;18.90;61.50;;;;;;4997103;28;20452;-72
2022/05/04 14:03:08;;;;;;;0.60;0.60;;;18.90;60.40;;;;;;4996682;28;20820;-72
2022/05/04 14:05:35;;;;;;;0.70;0.60;;;18.90;60.80;;;;;;4997494;28;20484;-74
2022/05/04 14:08:02;;;;;;;0.70;0.60;;;19.20;61.40;;;;;;4996966;28;20441;-74
2022/05/04 14:10:30;;;;;;;0.70;0.60;;;19.40;60.10;;;;;;4996739;28;21012;-73
2022/05/04 14:12:58;;;;;;;0.60;0.60;;;19.60;60.70;;;;;;4996991;28;20499;-73
2022/05/04 14:15:25;;;;;;;0.70;0.60;;;19.60;57.90;;;;;;4996977;28;20441;-73
2022/05/04 14:17:51;;;;;;;0.60;0.50;;;19.60;57.80;;;;;;4996428;28;20906;-72
2022/05/04 14:20:18;;;;;;;0.60;0.50;;;19.70;58.90;;;;;;4996545;28;20508;-73
2022/05/04 14:22:45;;;;;;;0.60;0.60;;;19.80;57.80;;;;;;4996846;28;20445;-74
2022/05/04 14:25:12;;;;;;;0.70;0.60;;;19.90;57.30;;;;;;4996650;28;20481;-72
2022/05/04 14:27:40;;;;;;;0.70;0.60;;;19.90;57.00;;;;;;4996480;28;20980;-73
2022/05/04 14:30:09;;;;;;;0.60;0.60;;;19.90;57.10;;;;;;4996318;28;20944;-74
2022/05/04 14:32:35;;;;;;;0.70;0.70;;;20.30;55.90;;;;;;4996688;28;20449;-72
2022/05/04 14:35:02;;;;;;;0.70;0.60;;;20.60;55.70;;;;;;4996434;28;20449;-73
2022/05/04 14:37:30;;;;;;;0.70;0.60;;;21.10;55.60;;;;;;4996459;28;20465;-73
2022/05/04 14:39:57;;;;;;;0.60;0.60;;;21.50;57.00;;;;;;4996069;28;20874;-73
2022/05/04 14:42:23;;;;;;;0.70;0.60;;;21.80;53.70;;;;;;4996127;28;20995;-73
2022/05/04 14:44:51;;;;;;;0.60;0.50;;;21.90;53.30;;;;;;4996294;28;20511;-73
2022/05/04 14:47:18;;;;;;;0.60;0.50;;;21.90;51.20;;;;;;4995937;28;21039;-73
2022/05/04 14:49:45;;;;;;;0.60;0.53;;;21.70;52.30;;;;;;4996370;28;20854;-73
2022/05/04 14:52:13;;;;;;;0.60;0.60;;;22.00;52.50;;;;;;4996191;28;20500;-73
2022/05/04 14:54:39;;;;;;;0.60;0.60;;;22.00;51.80;;;;;;4995832;28;20971;-72
2022/05/04 14:57:06;;;;;;;0.70;0.60;;;21.90;53.70;;;;;;4994911;28;20468;-73
2022/05/04 14:59:33;;;;;;;0.60;0.50;;;22.00;52.80;;;;;;4996106;28;20441;-73
2022/05/04 15:02:01;;;;;;;0.70;0.60;;;22.10;51.80;;;;;;4996028;28;20485;-73
2022/05/04 15:07:12;;;;;;;0.70;0.70;;;22.80;52.20;;;;;;4996032;28;20444;-73
2022/05/04 15:09:39;;;;;;;0.70;0.60;;;23.40;51.10;;;;;;4995900;28;20472;-72
2022/05/04 15:12:07;;;;;;;0.60;0.60;;;23.80;49.60;;;;;;4995670;28;20856;-72
2022/05/04 15:14:34;;;;;;;0.60;0.60;;;23.80;48.70;;;;;;4995852;28;20449;-73
2022/05/04 15:17:02;;;;;;;0.70;0.60;;;23.70;49.40;;;;;;5099816;23;20592;-69
2022/05/04 15:19:29;;;;;;;0.80;0.60;;;23.50;49.40;;;;;;4995616;28;20449;-69
2022/05/04 15:21:57;;;;;;;0.70;0.60;;;22.90;50.60;;;;;;4995189;28;20944;-69
2022/05/04 15:24:24;;;;;;;0.60;0.50;;;22.10;53.30;;;;;;4995707;28;20593;-69
2022/05/04 15:26:50;;;;;;;0.70;0.70;;;22.00;54.80;;;;;;4995291;28;20476;-69
2022/05/04 15:29:17;;;;;;;0.70;0.60;;;21.70;54.60;;;;;;4995421;28;20461;-70
2022/05/04 15:31:45;;;;;;;0.60;0.60;;;21.30;55.60;;;;;;4995357;28;20453;-69
2022/05/04 15:34:13;;;;;;;0.70;0.60;;;20.90;56.30;;;;;;4995340;28;20453;-69
2022/05/04 15:36:39;;;;;;;0.70;0.70;;;20.70;57.60;;;;;;4995347;28;20512;-69
2022/05/04 15:39:06;;;;;;;0.70;0.60;;;20.60;57.40;;;;;;4995321;28;20453;-68
2022/05/04 15:41:32;;;;;;;0.80;0.60;;;20.70;58.00;;;;;;4995745;28;20452;-69
2022/05/04 15:43:59;;;;;;;0.87;0.63;;;21.00;57.10;;;;;;4995333;28;20876;-69
2022/05/04 15:46:26;;;;;;;0.60;0.60;;;21.20;55.40;;;;;;4995012;28;20941;-68
2022/05/04 15:48:54;;;;;;;0.70;0.60;;;21.20;56.10;;;;;;4995132;28;20469;-68
2022/05/04 15:51:23;;;;;;;0.67;0.60;;;21.20;55.40;;;;;;4995950;28;20462;-69
2022/05/04 15:53:50;;;;;;;0.70;0.70;;;21.40;54.90;;;;;;4994995;28;20461;-69
2022/05/04 15:56:17;;;;;;;0.60;0.50;;;21.40;54.20;;;;;;4994760;28;20995;-68
2022/05/04 15:58:43;;;;;;;0.70;0.60;;;21.50;55.60;;;;;;4994991;28;20480;-68
2022/05/04 16:01:10;;;;;;;0.60;0.60;;;21.40;55.70;;;;;;4994809;28;20445;-68
2022/05/04 16:06:22;;;;;;;0.60;0.60;;;21.60;54.90;;;;;;4994393;28;20979;-68
2022/05/04 16:08:49;;;;;;;0.60;0.60;;;21.50;55.30;;;;;;4994119;28;20877;-68
2022/05/04 16:11:15;;;;;;;0.70;0.60;;;21.50;55.00;;;;;;4994697;28;20457;-68
2022/05/04 16:13:42;;;;;;;0.60;0.50;;;21.50;55.90;;;;;;4994668;28;20449;-69
2022/05/04 16:16:09;;;;;;;0.60;0.60;;;21.50;54.00;;;;;;4994516;28;20449;-68
2022/05/04 16:24:07;;;;;;;0.60;0.60;;;20.70;55.00;;;;;;4994494;28;20409;-69
2022/05/04 16:26:34;;;;;;;0.70;0.60;;;20.40;55.60;;;;;;4994217;28;20568;-70
2022/05/04 16:29:01;;;;;;;0.60;0.50;;;20.40;55.60;;;;;;4994364;28;20479;-69
2022/05/04 16:31:28;;;;;;;0.70;0.60;;;20.40;55.80;;;;;;4994053;28;20484;-69
2022/05/04 16:33:55;;;;;;;0.60;0.60;;;20.50;55.60;;;;;;4994280;28;20449;-70
2022/05/04 16:36:21;;;;;;;0.70;0.60;;;20.40;54.80;;;;;;4994059;28;20445;-69